createdAt,value
2022-11-09T00:00:01.882Z,97759.00
2022-11-09T00:00:11.990Z,97761.00
2022-11-09T00:00:22.322Z,97763.00
2022-11-09T00:00:31.851Z,97761.00
2022-11-09T00:00:43.331Z,97761.00
2022-11-09T00:00:52.374Z,97757.00
2022-11-09T00:01:02.464Z,97752.00
2022-11-09T00:01:11.841Z,97754.00
2022-11-09T00:01:22.334Z,97757.00
2022-11-09T00:01:32.400Z,97757.00
2022-11-09T00:01:42.399Z,97757.00
2022-11-09T00:01:52.231Z,97759.00
2022-11-09T00:02:01.860Z,97755.00
2022-11-09T00:02:11.853Z,97752.00
2022-11-09T00:02:22.442Z,97757.00
2022-11-09T00:02:31.861Z,97750.00
2022-11-09T00:02:44.118Z,97757.00
2022-11-09T00:02:52.871Z,97759.00
2022-11-09T00:03:03.387Z,97754.00
2022-11-09T00:03:11.931Z,97755.00
2022-11-09T00:03:22.814Z,97752.00
2022-11-09T00:03:32.484Z,97759.00
2022-11-09T00:03:42.511Z,97750.00
2022-11-09T00:03:52.821Z,97755.00
2022-11-09T00:04:03.381Z,97757.00
2022-11-09T00:04:11.921Z,97757.00
2022-11-09T00:04:21.951Z,97754.00
2022-11-09T00:04:31.989Z,97755.00
2022-11-09T00:04:41.935Z,97754.00
2022-11-09T00:04:52.560Z,97754.00
2022-11-09T00:05:02.289Z,97755.00
2022-11-09T00:05:11.892Z,97757.00
2022-11-09T00:05:22.574Z,97754.00
2022-11-09T00:05:33.354Z,97757.00
2022-11-09T00:05:41.927Z,97754.00
2022-11-09T00:05:51.930Z,97757.00
2022-11-09T00:06:01.917Z,97759.00
2022-11-09T00:06:12.021Z,97754.00
2022-11-09T00:06:22.061Z,97755.00
2022-11-09T00:06:32.656Z,97754.00
2022-11-09T00:06:42.183Z,97755.00
2022-11-09T00:06:52.058Z,97757.00
2022-11-09T00:07:02.076Z,97748.00
2022-11-09T00:07:11.909Z,97754.00
2022-11-09T00:07:22.775Z,97754.00
2022-11-09T00:07:32.712Z,97754.00
2022-11-09T00:07:41.892Z,97757.00
2022-11-09T00:07:52.681Z,97755.00
2022-11-09T00:08:02.712Z,97757.00
2022-11-09T00:08:12.754Z,97757.00
2022-11-09T00:08:21.942Z,97755.00
2022-11-09T00:08:33.535Z,97754.00
2022-11-09T00:08:43.339Z,97752.00
2022-11-09T00:08:53.323Z,97754.00
2022-11-09T00:09:07.376Z,97754.00
2022-11-09T00:09:14.461Z,97755.00
2022-11-09T00:09:22.969Z,97755.00
2022-11-09T00:09:34.420Z,97757.00
2022-11-09T00:09:43.989Z,97752.00
2022-11-09T00:09:54.466Z,97759.00
2022-11-09T00:10:02.947Z,97757.00
2022-11-09T00:10:14.383Z,97755.00
2022-11-09T00:10:23.893Z,97755.00
2022-11-09T00:10:34.422Z,97755.00
2022-11-09T00:10:44.372Z,97755.00
2022-11-09T00:10:54.400Z,97755.00
2022-11-09T00:11:03.949Z,97759.00
2022-11-09T00:11:12.964Z,97757.00
2022-11-09T00:11:24.399Z,97757.00
2022-11-09T00:11:32.921Z,97759.00
2022-11-09T00:11:44.377Z,97759.00
2022-11-09T00:11:54.370Z,97757.00
2022-11-09T00:12:02.913Z,97759.00
2022-11-09T00:12:12.965Z,97759.00
2022-11-09T00:12:22.903Z,97757.00
2022-11-09T00:12:34.393Z,97759.00
2022-11-09T00:12:42.954Z,97759.00
2022-11-09T00:12:52.909Z,97761.00
2022-11-09T00:13:02.905Z,97759.00
2022-11-09T00:13:12.938Z,97759.00
2022-11-09T00:13:23.396Z,97761.00
2022-11-09T00:13:34.364Z,97755.00
2022-11-09T00:13:44.378Z,97763.00
2022-11-09T00:13:52.915Z,97754.00
2022-11-09T00:14:02.926Z,97759.00
2022-11-09T00:14:14.365Z,97759.00
2022-11-09T00:14:22.894Z,97761.00
2022-11-09T00:14:32.918Z,97761.00
2022-11-09T00:14:42.905Z,97761.00
2022-11-09T00:14:52.900Z,97757.00
2022-11-09T00:15:04.375Z,97759.00
2022-11-09T00:15:14.356Z,97750.00
2022-11-09T00:15:24.348Z,97755.00
2022-11-09T00:15:34.362Z,97759.00
2022-11-09T00:15:44.335Z,97757.00
2022-11-09T00:15:54.348Z,97754.00
2022-11-09T00:16:03.833Z,97755.00
2022-11-09T00:16:12.916Z,97757.00
2022-11-09T00:16:24.352Z,97759.00
2022-11-09T00:16:34.345Z,97755.00
2022-11-09T00:16:43.735Z,97757.00
2022-11-09T00:16:54.356Z,97757.00
2022-11-09T00:17:04.324Z,97761.00
2022-11-09T00:17:14.335Z,97759.00
2022-11-09T00:17:23.824Z,97759.00
2022-11-09T00:17:32.886Z,97763.00
2022-11-09T00:17:44.333Z,97759.00
2022-11-09T00:17:52.886Z,97759.00
2022-11-09T00:18:03.771Z,97759.00
2022-11-09T00:18:14.324Z,97761.00
2022-11-09T00:18:22.876Z,97761.00
2022-11-09T00:18:34.326Z,97761.00
2022-11-09T00:18:43.943Z,97765.00
2022-11-09T00:18:54.323Z,97765.00
2022-11-09T00:19:04.304Z,97763.00
2022-11-09T00:19:13.235Z,97759.00
2022-11-09T00:19:22.839Z,97765.00
2022-11-09T00:19:34.317Z,97761.00
2022-11-09T00:19:42.853Z,97761.00
2022-11-09T00:19:52.864Z,97761.00
2022-11-09T00:20:03.834Z,97761.00
2022-11-09T00:20:14.308Z,97761.00
2022-11-09T00:20:22.846Z,97763.00
2022-11-09T00:20:34.329Z,97765.00
2022-11-09T00:20:47.617Z,97761.00
2022-11-09T00:20:54.019Z,97759.00
2022-11-09T00:21:03.026Z,97765.00
2022-11-09T00:21:14.498Z,97755.00
2022-11-09T00:21:23.987Z,97755.00
2022-11-09T00:21:34.486Z,97761.00
2022-11-09T00:21:43.057Z,97765.00
2022-11-09T00:21:53.056Z,97765.00
2022-11-09T00:22:03.036Z,97763.00
2022-11-09T00:22:13.028Z,97767.00
2022-11-09T00:22:23.045Z,97761.00
2022-11-09T00:22:33.076Z,97763.00
2022-11-09T00:22:43.036Z,97765.00
2022-11-09T00:22:53.020Z,97761.00
2022-11-09T00:23:04.676Z,97761.00
2022-11-09T00:23:13.969Z,97759.00
2022-11-09T00:23:23.352Z,97759.00
2022-11-09T00:23:33.034Z,97761.00
2022-11-09T00:23:43.019Z,97759.00
2022-11-09T00:23:53.059Z,97763.00
2022-11-09T00:24:03.038Z,97759.00
2022-11-09T00:24:13.167Z,97757.00
2022-11-09T00:24:24.457Z,97759.00
2022-11-09T00:24:34.448Z,97761.00
2022-11-09T00:24:44.458Z,97759.00
2022-11-09T00:24:53.008Z,97761.00
2022-11-09T00:25:03.008Z,97761.00
2022-11-09T00:25:14.467Z,97761.00
2022-11-09T00:25:24.434Z,97759.00
2022-11-09T00:25:34.459Z,97757.00
2022-11-09T00:25:43.047Z,97757.00
2022-11-09T00:25:52.998Z,97761.00
2022-11-09T00:26:03.015Z,97761.00
2022-11-09T00:26:13.008Z,97759.00
2022-11-09T00:26:22.997Z,97761.00
2022-11-09T00:26:34.448Z,97752.00
2022-11-09T00:26:44.478Z,97755.00
2022-11-09T00:26:53.029Z,97761.00
2022-11-09T00:27:03.009Z,97761.00
2022-11-09T00:27:17.492Z,97757.00
2022-11-09T00:27:22.988Z,97757.00
2022-11-09T00:27:33.949Z,97757.00
2022-11-09T00:27:44.437Z,97755.00
2022-11-09T00:27:54.445Z,97757.00
2022-11-09T00:28:03.030Z,97757.00
2022-11-09T00:28:13.018Z,97755.00
2022-11-09T00:28:23.039Z,97754.00
2022-11-09T00:28:32.977Z,97752.00
2022-11-09T00:28:43.710Z,97755.00
2022-11-09T00:28:52.999Z,97755.00
2022-11-09T00:29:03.743Z,97757.00
2022-11-09T00:29:13.708Z,97754.00
2022-11-09T00:29:22.993Z,97752.00
2022-11-09T00:29:32.971Z,97752.00
2022-11-09T00:29:44.439Z,97744.00
2022-11-09T00:29:52.961Z,97754.00
2022-11-09T00:30:03.970Z,97748.00
2022-11-09T00:30:12.970Z,97750.00
2022-11-09T00:30:23.009Z,97752.00
2022-11-09T00:30:32.977Z,97750.00
2022-11-09T00:30:43.020Z,97752.00
2022-11-09T00:30:52.970Z,97742.00
2022-11-09T00:31:03.807Z,97750.00
2022-11-09T00:31:14.428Z,97754.00
2022-11-09T00:31:24.423Z,97750.00
2022-11-09T00:31:32.970Z,97750.00
2022-11-09T00:31:42.978Z,97752.00
2022-11-09T00:31:52.929Z,97748.00
2022-11-09T00:32:02.958Z,97750.00
2022-11-09T00:32:14.409Z,97750.00
2022-11-09T00:32:27.465Z,97752.00
2022-11-09T00:32:33.154Z,97750.00
2022-11-09T00:32:42.930Z,97750.00
2022-11-09T00:32:52.940Z,97750.00
2022-11-09T00:33:03.911Z,97746.00
2022-11-09T00:33:12.949Z,97752.00
2022-11-09T00:33:22.951Z,97748.00
2022-11-09T00:33:32.960Z,97748.00
2022-11-09T00:33:43.045Z,97754.00
2022-11-09T00:33:54.382Z,97744.00
2022-11-09T00:34:04.410Z,97748.00
2022-11-09T00:34:13.790Z,97750.00
2022-11-09T00:34:23.015Z,97750.00
2022-11-09T00:34:34.470Z,97748.00
2022-11-09T00:34:43.960Z,97748.00
2022-11-09T00:34:53.000Z,97752.00
2022-11-09T00:35:04.509Z,97748.00
2022-11-09T00:35:13.010Z,97750.00
2022-11-09T00:35:23.000Z,97750.00
2022-11-09T00:35:33.012Z,97750.00
2022-11-09T00:35:43.010Z,97742.00
2022-11-09T00:35:54.476Z,97746.00
2022-11-09T00:36:03.000Z,97746.00
2022-11-09T00:36:13.049Z,97746.00
2022-11-09T00:36:23.801Z,97746.00
2022-11-09T00:36:33.067Z,97746.00
2022-11-09T00:36:43.952Z,97746.00
2022-11-09T00:36:53.080Z,97746.00
2022-11-09T00:37:03.123Z,97748.00
2022-11-09T00:37:13.224Z,97746.00
2022-11-09T00:37:23.115Z,97750.00
2022-11-09T00:37:33.201Z,97744.00
2022-11-09T00:37:44.479Z,97740.00
2022-11-09T00:37:53.193Z,97746.00
2022-11-09T00:38:03.194Z,97744.00
2022-11-09T00:38:13.061Z,97744.00
2022-11-09T00:38:23.192Z,97748.00
2022-11-09T00:38:33.132Z,97742.00
2022-11-09T00:38:43.164Z,97746.00
2022-11-09T00:38:53.002Z,97746.00
2022-11-09T00:39:03.231Z,97748.00
2022-11-09T00:39:14.426Z,97742.00
2022-11-09T00:39:23.202Z,97746.00
2022-11-09T00:39:34.434Z,97746.00
2022-11-09T00:39:43.953Z,97744.00
2022-11-09T00:39:53.017Z,97744.00
2022-11-09T00:40:04.432Z,97734.00
2022-11-09T00:40:14.401Z,97742.00
2022-11-09T00:40:23.107Z,97744.00
2022-11-09T00:40:34.439Z,97746.00
2022-11-09T00:40:43.043Z,97746.00
2022-11-09T00:40:54.440Z,97746.00
2022-11-09T00:41:02.961Z,97744.00
2022-11-09T00:41:12.962Z,97744.00
2022-11-09T00:41:24.449Z,97744.00
2022-11-09T00:41:33.924Z,97746.00
2022-11-09T00:41:43.003Z,97734.00
2022-11-09T00:41:53.076Z,97742.00
2022-11-09T00:42:02.942Z,97748.00
2022-11-09T00:42:12.991Z,97740.00
2022-11-09T00:42:22.969Z,97744.00
2022-11-09T00:42:32.954Z,97742.00
2022-11-09T00:42:43.703Z,97742.00
2022-11-09T00:42:52.985Z,97746.00
2022-11-09T00:43:04.414Z,97746.00
2022-11-09T00:43:12.966Z,97744.00
2022-11-09T00:43:22.952Z,97738.00
2022-11-09T00:43:32.940Z,97742.00
2022-11-09T00:43:44.392Z,97744.00
2022-11-09T00:43:52.930Z,97744.00
2022-11-09T00:44:02.965Z,97742.00
2022-11-09T00:44:14.413Z,97744.00
2022-11-09T00:44:22.932Z,97740.00
2022-11-09T00:44:32.954Z,97736.00
2022-11-09T00:44:42.973Z,97740.00
2022-11-09T00:44:52.935Z,97740.00
2022-11-09T00:45:04.394Z,97740.00
2022-11-09T00:45:12.955Z,97740.00
2022-11-09T00:45:23.453Z,97736.00
2022-11-09T00:45:34.379Z,97738.00
2022-11-09T00:45:42.933Z,97736.00
2022-11-09T00:45:54.395Z,97736.00
2022-11-09T00:46:04.375Z,97736.00
2022-11-09T00:46:14.367Z,97734.00
2022-11-09T00:46:22.944Z,97734.00
2022-11-09T00:46:34.411Z,97740.00
2022-11-09T00:46:43.984Z,97736.00
2022-11-09T00:46:52.921Z,97734.00
2022-11-09T00:47:03.190Z,97738.00
2022-11-09T00:47:12.892Z,97738.00
2022-11-09T00:47:23.778Z,97740.00
2022-11-09T00:47:34.355Z,97738.00
2022-11-09T00:47:42.908Z,97726.00
2022-11-09T00:47:52.932Z,97732.00
2022-11-09T00:48:02.956Z,97732.00
2022-11-09T00:48:14.364Z,97734.00
2022-11-09T00:48:22.911Z,97740.00
2022-11-09T00:48:32.916Z,97740.00
2022-11-09T00:48:42.934Z,97738.00
2022-11-09T00:48:52.952Z,97738.00
2022-11-09T00:49:02.925Z,97736.00
2022-11-09T00:49:13.335Z,97736.00
2022-11-09T00:49:23.836Z,97736.00
2022-11-09T00:49:32.915Z,97740.00
2022-11-09T00:49:44.394Z,97732.00
2022-11-09T00:49:52.924Z,97742.00
2022-11-09T00:50:03.777Z,97738.00
2022-11-09T00:50:14.346Z,97734.00
2022-11-09T00:50:24.345Z,97736.00
2022-11-09T00:50:32.886Z,97736.00
2022-11-09T00:50:43.713Z,97740.00
2022-11-09T00:50:52.889Z,97734.00
2022-11-09T00:51:04.356Z,97736.00
2022-11-09T00:51:12.905Z,97732.00
2022-11-09T00:51:23.902Z,97728.00
2022-11-09T00:51:32.901Z,97728.00
2022-11-09T00:51:44.348Z,97730.00
2022-11-09T00:51:54.492Z,97730.00
2022-11-09T00:52:04.321Z,97732.00
2022-11-09T00:52:12.873Z,97734.00
2022-11-09T00:52:22.887Z,97728.00
2022-11-09T00:52:32.887Z,97730.00
2022-11-09T00:52:43.767Z,97728.00
2022-11-09T00:52:52.898Z,97730.00
2022-11-09T00:53:04.346Z,97730.00
2022-11-09T00:53:12.886Z,97732.00
2022-11-09T00:53:24.346Z,97728.00
2022-11-09T00:53:32.866Z,97732.00
2022-11-09T00:53:42.941Z,97732.00
2022-11-09T00:53:52.971Z,97730.00
2022-11-09T00:54:02.910Z,97728.00
2022-11-09T00:54:12.866Z,97734.00
2022-11-09T00:54:24.317Z,97732.00
2022-11-09T00:54:32.854Z,97732.00
2022-11-09T00:54:44.316Z,97732.00
2022-11-09T00:54:52.869Z,97732.00
2022-11-09T00:55:02.876Z,97734.00
2022-11-09T00:55:12.868Z,97736.00
2022-11-09T00:55:23.789Z,97732.00
2022-11-09T00:55:32.850Z,97734.00
2022-11-09T00:55:42.856Z,97734.00
2022-11-09T00:55:52.867Z,97734.00
2022-11-09T00:56:02.873Z,97736.00
2022-11-09T00:56:12.866Z,97734.00
2022-11-09T00:56:22.917Z,97734.00
2022-11-09T00:56:34.288Z,97732.00
2022-11-09T00:56:44.296Z,97730.00
2022-11-09T00:56:52.876Z,97734.00
2022-11-09T00:57:04.303Z,97736.00
2022-11-09T00:57:12.848Z,97738.00
2022-11-09T00:57:23.816Z,97740.00
2022-11-09T00:57:32.847Z,97740.00
2022-11-09T00:57:44.321Z,97740.00
2022-11-09T00:57:52.836Z,97740.00
2022-11-09T00:58:03.767Z,97738.00
2022-11-09T00:58:12.865Z,97734.00
2022-11-09T00:58:22.836Z,97738.00
2022-11-09T00:58:32.849Z,97738.00
2022-11-09T00:58:44.311Z,97736.00
2022-11-09T00:58:54.285Z,97738.00
2022-11-09T00:59:04.307Z,97732.00
2022-11-09T00:59:12.828Z,97740.00
2022-11-09T00:59:24.291Z,97740.00
2022-11-09T00:59:32.827Z,97736.00
2022-11-09T00:59:42.835Z,97736.00
2022-11-09T00:59:54.286Z,97738.00
2022-11-09T01:00:04.304Z,97738.00
2022-11-09T01:00:12.817Z,97742.00
2022-11-09T01:00:22.839Z,97738.00
2022-11-09T01:00:33.176Z,97740.00
2022-11-09T01:00:43.001Z,97742.00
2022-11-09T01:00:54.292Z,97742.00
2022-11-09T01:01:03.799Z,97740.00
2022-11-09T01:01:14.422Z,97738.00
2022-11-09T01:01:24.377Z,97740.00
2022-11-09T01:01:32.862Z,97740.00
2022-11-09T01:01:44.340Z,97734.00
2022-11-09T01:01:52.881Z,97736.00
2022-11-09T01:02:03.287Z,97734.00
2022-11-09T01:02:13.318Z,97742.00
2022-11-09T01:02:23.359Z,97736.00
2022-11-09T01:02:32.848Z,97744.00
2022-11-09T01:02:44.268Z,97738.00
2022-11-09T01:02:52.788Z,97742.00
2022-11-09T01:03:04.260Z,97742.00
2022-11-09T01:03:13.321Z,97740.00
2022-11-09T01:03:23.769Z,97742.00
2022-11-09T01:03:33.399Z,97744.00
2022-11-09T01:03:43.338Z,97742.00
2022-11-09T01:03:53.061Z,97742.00
2022-11-09T01:04:02.998Z,97742.00
2022-11-09T01:04:13.439Z,97748.00
2022-11-09T01:04:23.377Z,97744.00
2022-11-09T01:04:33.409Z,97746.00
2022-11-09T01:04:43.550Z,97746.00
2022-11-09T01:04:52.974Z,97742.00
2022-11-09T01:05:02.801Z,97742.00
2022-11-09T01:05:13.450Z,97742.00
2022-11-09T01:05:22.787Z,97744.00
2022-11-09T01:05:32.800Z,97742.00
2022-11-09T01:05:43.150Z,97746.00
2022-11-09T01:05:53.080Z,97744.00
2022-11-09T01:06:03.520Z,97746.00
2022-11-09T01:06:12.769Z,97746.00
2022-11-09T01:06:23.505Z,97744.00
2022-11-09T01:06:34.133Z,97746.00
2022-11-09T01:06:42.816Z,97744.00
2022-11-09T01:06:53.115Z,97746.00
2022-11-09T01:07:03.624Z,97746.00
2022-11-09T01:07:14.257Z,97742.00
2022-11-09T01:07:23.597Z,97740.00
2022-11-09T01:07:33.532Z,97748.00
2022-11-09T01:07:42.750Z,97748.00
2022-11-09T01:07:52.779Z,97748.00
2022-11-09T01:08:02.760Z,97744.00
2022-11-09T01:08:13.570Z,97742.00
2022-11-09T01:08:22.786Z,97744.00
2022-11-09T01:08:32.768Z,97748.00
2022-11-09T01:08:42.788Z,97744.00
2022-11-09T01:08:52.790Z,97740.00
2022-11-09T01:09:04.199Z,97742.00
2022-11-09T01:09:14.221Z,97742.00
2022-11-09T01:09:22.792Z,97744.00
2022-11-09T01:09:34.209Z,97742.00
2022-11-09T01:09:42.779Z,97746.00
2022-11-09T01:09:52.768Z,97744.00
2022-11-09T01:10:02.843Z,97744.00
2022-11-09T01:10:14.189Z,97744.00
2022-11-09T01:10:23.702Z,97746.00
2022-11-09T01:10:32.761Z,97746.00
2022-11-09T01:10:42.771Z,97744.00
2022-11-09T01:10:52.772Z,97744.00
2022-11-09T01:11:02.772Z,97742.00
2022-11-09T01:11:12.752Z,97744.00
2022-11-09T01:11:24.222Z,97740.00
2022-11-09T01:11:33.691Z,97742.00
2022-11-09T01:11:44.212Z,97744.00
2022-11-09T01:11:52.758Z,97742.00
2022-11-09T01:12:02.751Z,97742.00
2022-11-09T01:12:14.222Z,97742.00
2022-11-09T01:12:23.700Z,97738.00
2022-11-09T01:12:34.212Z,97742.00
2022-11-09T01:12:42.741Z,97738.00
2022-11-09T01:12:52.762Z,97738.00
2022-11-09T01:13:02.751Z,97738.00
2022-11-09T01:13:14.202Z,97738.00
2022-11-09T01:13:22.827Z,97738.00
2022-11-09T01:13:32.742Z,97734.00
2022-11-09T01:13:43.547Z,97738.00
2022-11-09T01:13:54.183Z,97738.00
2022-11-09T01:14:04.187Z,97736.00
2022-11-09T01:14:14.192Z,97736.00
2022-11-09T01:14:23.671Z,97736.00
2022-11-09T01:14:34.185Z,97736.00
2022-11-09T01:14:42.720Z,97736.00
2022-11-09T01:14:52.744Z,97732.00
2022-11-09T01:15:02.733Z,97736.00
2022-11-09T01:15:14.193Z,97734.00
2022-11-09T01:15:22.721Z,97734.00
2022-11-09T01:15:33.683Z,97732.00
2022-11-09T01:15:42.721Z,97738.00
2022-11-09T01:15:52.743Z,97734.00
2022-11-09T01:16:04.163Z,97736.00
2022-11-09T01:16:14.172Z,97736.00
2022-11-09T01:16:24.184Z,97736.00
2022-11-09T01:16:32.802Z,97736.00
2022-11-09T01:16:44.172Z,97736.00
2022-11-09T01:16:53.683Z,97738.00
2022-11-09T01:17:02.703Z,97736.00
2022-11-09T01:17:14.175Z,97736.00
2022-11-09T01:17:24.141Z,97740.00
2022-11-09T01:17:33.664Z,97738.00
2022-11-09T01:17:42.715Z,97738.00
2022-11-09T01:17:54.183Z,97736.00
2022-11-09T01:18:02.759Z,97736.00
2022-11-09T01:18:12.703Z,97738.00
2022-11-09T01:18:24.162Z,97738.00
2022-11-09T01:18:32.701Z,97736.00
2022-11-09T01:18:44.156Z,97738.00
2022-11-09T01:18:52.723Z,97740.00
2022-11-09T01:19:04.143Z,97736.00
2022-11-09T01:19:14.133Z,97740.00
2022-11-09T01:19:22.731Z,97738.00
2022-11-09T01:19:34.145Z,97736.00
2022-11-09T01:19:44.143Z,97734.00
2022-11-09T01:19:53.643Z,97738.00
2022-11-09T01:20:03.652Z,97736.00
2022-11-09T01:20:14.134Z,97738.00
2022-11-09T01:20:24.127Z,97738.00
2022-11-09T01:20:32.683Z,97736.00
2022-11-09T01:20:42.693Z,97732.00
2022-11-09T01:20:54.133Z,97734.00
2022-11-09T01:21:02.665Z,97732.00
2022-11-09T01:21:12.680Z,97732.00
2022-11-09T01:21:24.145Z,97734.00
2022-11-09T01:21:34.133Z,97734.00
2022-11-09T01:21:43.615Z,97734.00
2022-11-09T01:21:52.690Z,97734.00
2022-11-09T01:22:04.123Z,97734.00
2022-11-09T01:22:14.124Z,97734.00
2022-11-09T01:22:24.124Z,97732.00
2022-11-09T01:22:34.125Z,97732.00
2022-11-09T01:22:43.624Z,97736.00
2022-11-09T01:22:54.123Z,97734.00
2022-11-09T01:23:04.135Z,97734.00
2022-11-09T01:23:12.725Z,97734.00
2022-11-09T01:23:24.116Z,97734.00
2022-11-09T01:23:32.653Z,97738.00
2022-11-09T01:23:44.125Z,97738.00
2022-11-09T01:23:52.655Z,97738.00
2022-11-09T01:24:02.656Z,97738.00
2022-11-09T01:24:14.105Z,97736.00
2022-11-09T01:24:24.104Z,97736.00
2022-11-09T01:24:34.114Z,97734.00
2022-11-09T01:24:44.102Z,97738.00
2022-11-09T01:24:52.686Z,97740.00
2022-11-09T01:25:02.644Z,97740.00
2022-11-09T01:25:12.663Z,97738.00
2022-11-09T01:25:22.660Z,97740.00
2022-11-09T01:25:34.138Z,97738.00
2022-11-09T01:25:42.635Z,97740.00
2022-11-09T01:25:54.136Z,97740.00
2022-11-09T01:26:04.084Z,97740.00
2022-11-09T01:26:14.091Z,97740.00
2022-11-09T01:26:22.631Z,97738.00
2022-11-09T01:26:32.665Z,97734.00
2022-11-09T01:26:44.084Z,97736.00
2022-11-09T01:26:52.686Z,97736.00
2022-11-09T01:27:02.617Z,97738.00
2022-11-09T01:27:14.096Z,97736.00
2022-11-09T01:27:23.000Z,97734.00
2022-11-09T01:27:34.066Z,97738.00
2022-11-09T01:27:42.656Z,97740.00
2022-11-09T01:27:52.633Z,97740.00
2022-11-09T01:28:02.642Z,97742.00
2022-11-09T01:28:14.086Z,97736.00
2022-11-09T01:28:22.654Z,97740.00
2022-11-09T01:28:32.816Z,97736.00
2022-11-09T01:28:42.618Z,97736.00
2022-11-09T01:28:52.658Z,97736.00
2022-11-09T01:29:03.610Z,97736.00
2022-11-09T01:29:14.078Z,97730.00
2022-11-09T01:29:24.076Z,97732.00
2022-11-09T01:29:32.628Z,97734.00
2022-11-09T01:29:42.617Z,97730.00
2022-11-09T01:29:52.627Z,97730.00
2022-11-09T01:30:04.075Z,97730.00
2022-11-09T01:30:14.055Z,97730.00
2022-11-09T01:30:23.570Z,97724.00
2022-11-09T01:30:34.066Z,97728.00
2022-11-09T01:30:42.805Z,97728.00
2022-11-09T01:30:54.036Z,97726.00
2022-11-09T01:31:02.597Z,97726.00
2022-11-09T01:31:12.607Z,97726.00
2022-11-09T01:31:22.618Z,97728.00
2022-11-09T01:31:34.087Z,97728.00
2022-11-09T01:31:42.988Z,97728.00
2022-11-09T01:31:52.597Z,97728.00
2022-11-09T01:32:02.776Z,97730.00
2022-11-09T01:32:12.587Z,97724.00
2022-11-09T01:32:23.547Z,97726.00
2022-11-09T01:32:32.598Z,97728.00
2022-11-09T01:32:42.667Z,97724.00
2022-11-09T01:32:54.049Z,97726.00
2022-11-09T01:33:02.598Z,97724.00
2022-11-09T01:33:12.889Z,97722.00
2022-11-09T01:33:22.587Z,97724.00
2022-11-09T01:33:32.784Z,97722.00
2022-11-09T01:33:42.568Z,97722.00
2022-11-09T01:33:54.059Z,97720.00
2022-11-09T01:34:04.038Z,97722.00
2022-11-09T01:34:12.608Z,97720.00
2022-11-09T01:34:22.564Z,97718.00
2022-11-09T01:34:32.888Z,97718.00
2022-11-09T01:34:42.559Z,97718.00
2022-11-09T01:34:52.589Z,97718.00
2022-11-09T01:35:04.037Z,97716.00
2022-11-09T01:35:12.587Z,97714.00
2022-11-09T01:35:22.576Z,97714.00
2022-11-09T01:35:32.597Z,97716.00
2022-11-09T01:35:42.628Z,97716.00
2022-11-09T01:35:52.869Z,97716.00
2022-11-09T01:36:02.899Z,97716.00
2022-11-09T01:36:12.938Z,97716.00
2022-11-09T01:36:22.978Z,97716.00
2022-11-09T01:36:32.908Z,97716.00
2022-11-09T01:36:42.547Z,97716.00
2022-11-09T01:36:52.997Z,97716.00
2022-11-09T01:37:02.575Z,97716.00
2022-11-09T01:37:14.020Z,97716.00
2022-11-09T01:37:24.025Z,97714.00
2022-11-09T01:37:32.558Z,97714.00
2022-11-09T01:37:42.630Z,97712.00
2022-11-09T01:37:53.000Z,97712.00
2022-11-09T01:38:02.544Z,97700.00
2022-11-09T01:38:13.069Z,97708.00
2022-11-09T01:38:22.529Z,97708.00
2022-11-09T01:38:34.019Z,97700.00
2022-11-09T01:38:43.510Z,97698.00
2022-11-09T01:38:52.658Z,97708.00
2022-11-09T01:39:02.559Z,97698.00
2022-11-09T01:39:12.568Z,97700.00
2022-11-09T01:39:23.416Z,97700.00
2022-11-09T01:39:33.990Z,97700.00
2022-11-09T01:39:42.540Z,97708.00
2022-11-09T01:39:54.000Z,97710.00
2022-11-09T01:40:02.570Z,97708.00
2022-11-09T01:40:12.546Z,97708.00
2022-11-09T01:40:23.999Z,97708.00
2022-11-09T01:40:32.559Z,97708.00
2022-11-09T01:40:44.011Z,97710.00
2022-11-09T01:40:52.527Z,97710.00
2022-11-09T01:41:02.542Z,97712.00
2022-11-09T01:41:13.970Z,97710.00
2022-11-09T01:41:22.529Z,97708.00
2022-11-09T01:41:33.431Z,97712.00
2022-11-09T01:41:42.539Z,97712.00
2022-11-09T01:41:52.539Z,97710.00
2022-11-09T01:42:03.983Z,97712.00
2022-11-09T01:42:13.971Z,97714.00
2022-11-09T01:42:23.992Z,97710.00
2022-11-09T01:42:32.640Z,97714.00
2022-11-09T01:42:43.957Z,97712.00
2022-11-09T01:42:53.970Z,97712.00
2022-11-09T01:43:03.292Z,97716.00
2022-11-09T01:43:12.557Z,97716.00
2022-11-09T01:43:24.401Z,97718.00
2022-11-09T01:43:33.978Z,97720.00
2022-11-09T01:43:42.507Z,97720.00
2022-11-09T01:43:52.511Z,97722.00
2022-11-09T01:44:04.010Z,97724.00
2022-11-09T01:44:13.981Z,97722.00
2022-11-09T01:44:22.509Z,97726.00
2022-11-09T01:44:32.511Z,97726.00
2022-11-09T01:44:42.522Z,97726.00
2022-11-09T01:44:53.959Z,97726.00
2022-11-09T01:45:03.459Z,97724.00
2022-11-09T01:45:12.523Z,97726.00
2022-11-09T01:45:23.982Z,97726.00
2022-11-09T01:45:32.499Z,97728.00
2022-11-09T01:45:44.020Z,97724.00
2022-11-09T01:45:52.526Z,97728.00
2022-11-09T01:46:03.515Z,97726.00
2022-11-09T01:46:13.952Z,97726.00
2022-11-09T01:46:23.952Z,97728.00
2022-11-09T01:46:32.509Z,97728.00
2022-11-09T01:46:43.962Z,97728.00
2022-11-09T01:46:53.940Z,97730.00
2022-11-09T01:47:02.530Z,97730.00
2022-11-09T01:47:12.670Z,97728.00
2022-11-09T01:47:23.949Z,97732.00
2022-11-09T01:47:33.941Z,97734.00
2022-11-09T01:47:42.501Z,97734.00
2022-11-09T01:47:52.490Z,97734.00
2022-11-09T01:48:03.945Z,97736.00
2022-11-09T01:48:12.491Z,97734.00
2022-11-09T01:48:22.500Z,97734.00
2022-11-09T01:48:32.491Z,97736.00
2022-11-09T01:48:43.973Z,97736.00
2022-11-09T01:48:52.603Z,97730.00
2022-11-09T01:49:03.933Z,97734.00
2022-11-09T01:49:13.432Z,97732.00
2022-11-09T01:49:23.923Z,97730.00
2022-11-09T01:49:32.500Z,97732.00
2022-11-09T01:49:42.486Z,97736.00
2022-11-09T01:49:52.482Z,97736.00
2022-11-09T01:50:03.946Z,97736.00
2022-11-09T01:50:13.934Z,97732.00
2022-11-09T01:50:23.923Z,97734.00
2022-11-09T01:50:32.473Z,97728.00
2022-11-09T01:50:43.321Z,97734.00
2022-11-09T01:50:53.922Z,97730.00
2022-11-09T01:51:03.901Z,97732.00
2022-11-09T01:51:13.941Z,97728.00
2022-11-09T01:51:22.487Z,97734.00
2022-11-09T01:51:33.246Z,97734.00
2022-11-09T01:51:42.463Z,97730.00
2022-11-09T01:51:53.934Z,97730.00
2022-11-09T01:52:03.901Z,97734.00
2022-11-09T01:52:13.932Z,97734.00
2022-11-09T01:52:22.482Z,97732.00
2022-11-09T01:52:32.462Z,97732.00
2022-11-09T01:52:42.524Z,97732.00
2022-11-09T01:52:52.473Z,97732.00
2022-11-09T01:53:02.452Z,97730.00
2022-11-09T01:53:12.452Z,97730.00
2022-11-09T01:53:23.935Z,97728.00
2022-11-09T01:53:33.912Z,97726.00
2022-11-09T01:53:42.436Z,97730.00
2022-11-09T01:53:53.272Z,97730.00
2022-11-09T01:54:03.893Z,97728.00
2022-11-09T01:54:13.883Z,97728.00
2022-11-09T01:54:22.431Z,97730.00
2022-11-09T01:54:32.472Z,97730.00
2022-11-09T01:54:42.441Z,97730.00
2022-11-09T01:54:53.403Z,97728.00
2022-11-09T01:55:02.453Z,97726.00
2022-11-09T01:55:13.900Z,97726.00
2022-11-09T01:55:22.434Z,97724.00
2022-11-09T01:55:32.433Z,97726.00
2022-11-09T01:55:42.416Z,97722.00
2022-11-09T01:55:53.894Z,97724.00
2022-11-09T01:56:03.872Z,97724.00
2022-11-09T01:56:12.423Z,97724.00
2022-11-09T01:56:23.885Z,97722.00
2022-11-09T01:56:32.415Z,97724.00
2022-11-09T01:56:43.906Z,97724.00
2022-11-09T01:56:52.426Z,97724.00
2022-11-09T01:57:03.885Z,97724.00
2022-11-09T01:57:12.973Z,97724.00
2022-11-09T01:57:22.514Z,97720.00